sensor_id;sensor_type;location;lat;lon;timestamp;pressure;altitude;pressure_sealevel;temperature;humidity
7168;BME280;3625;51.762;14.320;2023-12-20T00:01:38;100167.19;;;6.86;100.00
7168;BME280;3625;51.762;14.320;2023-12-20T00:04:07;100163.69;;;6.85;100.00
7168;BME280;3625;51.762;14.320;2023-12-20T00:06:36;100172.44;;;6.86;100.00
7168;BME280;3625;51.762;14.320;2023-12-20T00:09:05;100167.19;;;6.86;100.00
7168;BME280;3625;51.762;14.320;2023-12-20T00:11:34;100165.41;;;6.88;100.00
7168;BME280;3625;51.762;14.320;2023-12-20T00:14:04;100163.66;;;6.88;100.00
7168;BME280;3625;51.762;14.320;2023-12-20T00:16:32;100154.94;;;6.85;100.00
7168;BME280;3625;51.762;14.320;2023-12-20T00:19:01;100162.84;;;6.83;100.00
7168;BME280;3625;51.762;14.320;2023-12-20T00:21:30;100168.94;;;6.85;100.00
7168;BME280;3625;51.762;14.320;2023-12-20T00:23:59;100150.66;;;6.76;100.00
7168;BME280;3625;51.762;14.320;2023-12-20T00:26:28;100162.00;;;6.82;100.00
7168;BME280;3625;51.762;14.320;2023-12-20T00:28:57;100150.63;;;6.77;100.00
7168;BME280;3625;51.762;14.320;2023-12-20T00:31:27;100162.81;;;6.85;100.00
7168;BME280;3625;51.762;14.320;2023-12-20T00:33:56;100158.44;;;6.83;100.00
7168;BME280;3625;51.762;14.320;2023-12-20T00:36:25;100153.16;;;6.85;100.00
7168;BME280;3625;51.762;14.320;2023-12-20T00:38:54;100150.53;;;6.87;100.00
7168;BME280;3625;51.762;14.320;2023-12-20T00:41:23;100156.69;;;6.84;100.00
7168;BME280;3625;51.762;14.320;2023-12-20T00:43:52;100149.72;;;6.83;100.00
7168;BME280;3625;51.762;14.320;2023-12-20T00:46:21;100151.38;;;6.89;100.00
7168;BME280;3625;51.762;14.320;2023-12-20T00:48:51;100147.03;;;6.85;100.00
7168;BME280;3625;51.762;14.320;2023-12-20T00:51:20;100147.97;;;6.82;100.00
7168;BME280;3625;51.762;14.320;2023-12-20T00:53:50;100153.25;;;6.79;100.00
7168;BME280;3625;51.762;14.320;2023-12-20T00:56:22;100141.94;;;6.72;100.00
7168;BME280;3625;51.762;14.320;2023-12-20T00:58:51;100145.44;;;6.74;100.00
7168;BME280;3625;51.762;14.320;2023-12-20T01:01:20;100152.41;;;6.75;100.00
7168;BME280;3625;51.762;14.320;2023-12-20T01:03:51;100144.56;;;6.72;100.00
7168;BME280;3625;51.762;14.320;2023-12-20T01:06:20;100138.44;;;6.73;100.00
7168;BME280;3625;51.762;14.320;2023-12-20T01:08:49;100134.94;;;6.71;100.00
7168;BME280;3625;51.762;14.320;2023-12-20T01:11:18;100069.66;;;6.36;100.00
7168;BME280;3625;51.762;14.320;2023-12-20T01:13:46;100097.50;;;6.53;100.00
7168;BME280;3625;51.762;14.320;2023-12-20T01:16:15;100136.69;;;6.74;100.00
7168;BME280;3625;51.762;14.320;2023-12-20T01:18:44;100118.28;;;6.72;100.00
7168;BME280;3625;51.762;14.320;2023-12-20T01:21:14;100120.03;;;6.72;100.00
7168;BME280;3625;51.762;14.320;2023-12-20T01:23:43;100118.28;;;6.72;100.00
7168;BME280;3625;51.762;14.320;2023-12-20T01:26:12;100113.03;;;6.72;100.00
7168;BME280;3625;51.762;14.320;2023-12-20T01:28:41;100114.78;;;6.73;100.00
7168;BME280;3625;51.762;14.320;2023-12-20T01:31:10;100107.78;;;6.69;100.00
7168;BME280;3625;51.762;14.320;2023-12-20T01:33:39;100108.69;;;6.68;100.00
7168;BME280;3625;51.762;14.320;2023-12-20T01:36:09;100107.81;;;6.68;100.00
7168;BME280;3625;51.762;14.320;2023-12-20T01:38:40;100098.16;;;6.68;100.00
7168;BME280;3625;51.762;14.320;2023-12-20T01:41:09;100099.09;;;6.66;100.00
7168;BME280;3625;51.762;14.320;2023-12-20T01:43:38;100100.91;;;6.61;100.00
7168;BME280;3625;51.762;14.320;2023-12-20T01:46:17;100103.53;;;6.61;100.00
7168;BME280;3625;51.762;14.320;2023-12-20T01:48:47;100100.91;;;6.61;100.00
7168;BME280;3625;51.762;14.320;2023-12-20T01:51:17;100107.91;;;6.62;100.00
7168;BME280;3625;51.762;14.320;2023-12-20T01:53:48;100109.63;;;6.63;100.00
7168;BME280;3625;51.762;14.320;2023-12-20T01:56:17;100107.00;;;6.64;100.00
7168;BME280;3625;51.762;14.320;2023-12-20T01:58:48;100108.75;;;6.65;100.00
7168;BME280;3625;51.762;14.320;2023-12-20T02:01:17;100103.50;;;6.64;100.00
7168;BME280;3625;51.762;14.320;2023-12-20T02:03:46;100103.50;;;6.64;100.00
7168;BME280;3625;51.762;14.320;2023-12-20T02:06:17;100107.00;;;6.63;100.00
7168;BME280;3625;51.762;14.320;2023-12-20T02:08:49;100099.13;;;6.61;100.00
7168;BME280;3625;51.762;14.320;2023-12-20T02:11:18;100095.63;;;6.62;100.00
7168;BME280;3625;51.762;14.320;2023-12-20T02:13:47;100092.13;;;6.62;100.00
7168;BME280;3625;51.762;14.320;2023-12-20T02:16:15;100054.69;;;6.43;100.00
7168;BME280;3625;51.762;14.320;2023-12-20T02:18:45;100081.63;;;6.60;100.00
7168;BME280;3625;51.762;14.320;2023-12-20T02:21:14;100075.50;;;6.61;100.00
7168;BME280;3625;51.762;14.320;2023-12-20T02:23:44;100020.81;;;6.22;100.00
7168;BME280;3625;51.762;14.320;2023-12-20T02:26:14;100078.19;;;6.57;100.00
7168;BME280;3625;51.762;14.320;2023-12-20T02:28:43;100077.25;;;6.59;100.00
7168;BME280;3625;51.762;14.320;2023-12-20T02:31:12;100077.22;;;6.64;100.00
7168;BME280;3625;51.762;14.320;2023-12-20T02:33:41;100074.50;;;6.68;100.00
7168;BME280;3625;51.762;14.320;2023-12-20T02:36:10;100064.94;;;6.66;100.00
7168;BME280;3625;51.762;14.320;2023-12-20T02:38:39;100066.69;;;6.64;100.00
7168;BME280;3625;51.762;14.320;2023-12-20T02:41:09;100071.09;;;6.63;100.00
7168;BME280;3625;51.762;14.320;2023-12-20T02:43:38;100067.59;;;6.63;100.00
7168;BME280;3625;51.762;14.320;2023-12-20T02:46:07;100065.84;;;6.60;100.00
7168;BME280;3625;51.762;14.320;2023-12-20T02:48:36;100066.81;;;6.56;100.00
7168;BME280;3625;51.762;14.320;2023-12-20T02:51:05;100068.56;;;6.56;100.00
7168;BME280;3625;51.762;14.320;2023-12-20T02:53:34;100072.09;;;6.53;100.00
7168;BME280;3625;51.762;14.320;2023-12-20T02:56:03;100064.19;;;6.53;100.00
7168;BME280;3625;51.762;14.320;2023-12-20T02:58:34;100065.06;;;6.55;100.00
7168;BME280;3625;51.762;14.320;2023-12-20T03:01:03;100006.81;;;6.20;100.00
7168;BME280;3625;51.762;14.320;2023-12-20T03:03:32;100067.66;;;6.57;100.00
7168;BME280;3625;51.762;14.320;2023-12-20T03:06:01;100063.28;;;6.57;100.00
7168;BME280;3625;51.762;14.320;2023-12-20T03:08:30;100060.69;;;6.56;100.00
7168;BME280;3625;51.762;14.320;2023-12-20T03:10:59;100058.09;;;6.51;100.00
7168;BME280;3625;51.762;14.320;2023-12-20T03:13:29;100048.41;;;6.56;100.00
7168;BME280;3625;51.762;14.320;2023-12-20T03:15:59;100050.16;;;6.57;100.00
7168;BME280;3625;51.762;14.320;2023-12-20T03:18:28;100044.91;;;6.56;100.00
7168;BME280;3625;51.762;14.320;2023-12-20T03:20:57;100043.19;;;6.53;100.00
7168;BME280;3625;51.762;14.320;2023-12-20T03:23:25;100038.84;;;6.49;100.00
7168;BME280;3625;51.762;14.320;2023-12-20T03:25:54;100045.88;;;6.49;100.00
7168;BME280;3625;51.762;14.320;2023-12-20T03:28:23;100049.31;;;6.52;100.00
7168;BME280;3625;51.762;14.320;2023-12-20T03:30:52;100050.16;;;6.56;100.00
7168;BME280;3625;51.762;14.320;2023-12-20T03:33:23;100046.66;;;6.55;100.00
7168;BME280;3625;51.762;14.320;2023-12-20T03:35:52;100052.78;;;6.56;100.00
7168;BME280;3625;51.762;14.320;2023-12-20T03:38:21;100052.81;;;6.54;100.00
7168;BME280;3625;51.762;14.320;2023-12-20T03:40:51;100047.56;;;6.53;100.00
7168;BME280;3625;51.762;14.320;2023-12-20T03:43:20;100042.28;;;6.54;100.00
7168;BME280;3625;51.762;14.320;2023-12-20T03:45:49;100038.78;;;6.55;100.00
7168;BME280;3625;51.762;14.320;2023-12-20T03:48:18;100046.59;;;6.58;100.00
7168;BME280;3625;51.762;14.320;2023-12-20T03:50:48;100039.59;;;6.59;100.00
7168;BME280;3625;51.762;14.320;2023-12-20T03:53:17;100050.09;;;6.60;100.00
7168;BME280;3625;51.762;14.320;2023-12-20T03:55:46;100043.06;;;6.61;100.00
7168;BME280;3625;51.762;14.320;2023-12-20T03:58:15;100052.69;;;6.62;100.00
7168;BME280;3625;51.762;14.320;2023-12-20T04:00:44;100048.34;;;6.58;100.00
7168;BME280;3625;51.762;14.320;2023-12-20T04:03:13;100049.31;;;6.54;100.00
7168;BME280;3625;51.762;14.320;2023-12-20T04:05:42;100049.31;;;6.52;100.00
7168;BME280;3625;51.762;14.320;2023-12-20T04:08:12;100034.66;;;6.34;100.00
7168;BME280;3625;51.762;14.320;2023-12-20T04:10:41;100052.03;;;6.46;100.00
7168;BME280;3625;51.762;14.320;2023-12-20T04:13:10;100046.78;;;6.44;100.00
7168;BME280;3625;51.762;14.320;2023-12-20T04:15:39;100042.38;;;6.48;100.00
7168;BME280;3625;51.762;14.320;2023-12-20T04:18:08;100048.50;;;6.49;100.00
7168;BME280;3625;51.762;14.320;2023-12-20T04:20:37;100043.31;;;6.41;100.00
7168;BME280;3625;51.762;14.320;2023-12-20T04:23:06;100043.38;;;6.38;100.00
7168;BME280;3625;51.762;14.320;2023-12-20T04:25:36;100045.13;;;6.37;100.00
7168;BME280;3625;51.762;14.320;2023-12-20T04:28:05;100047.69;;;6.40;100.00
7168;BME280;3625;51.762;14.320;2023-12-20T04:30:34;100050.31;;;6.42;100.00
7168;BME280;3625;51.762;14.320;2023-12-20T04:33:04;100042.41;;;6.43;100.00
7168;BME280;3625;51.762;14.320;2023-12-20T04:35:33;100049.44;;;6.41;100.00
7168;BME280;3625;51.762;14.320;2023-12-20T04:38:01;100046.00;;;6.39;100.00
7168;BME280;3625;51.762;14.320;2023-12-20T04:40:30;100040.66;;;6.44;100.00
7168;BME280;3625;51.762;14.320;2023-12-20T04:43:02;100040.66;;;6.44;100.00
7168;BME280;3625;51.762;14.320;2023-12-20T04:45:31;100042.41;;;6.45;100.00
7168;BME280;3625;51.762;14.320;2023-12-20T04:48:01;100041.50;;;6.48;100.00
7168;BME280;3625;51.762;14.320;2023-12-20T04:50:30;100050.19;;;6.51;100.00
7168;BME280;3625;51.762;14.320;2023-12-20T04:52:59;100046.69;;;6.51;100.00
7168;BME280;3625;51.762;14.320;2023-12-20T04:55:28;100043.19;;;6.52;100.00
7168;BME280;3625;51.762;14.320;2023-12-20T04:57:57;100048.44;;;6.52;100.00
7168;BME280;3625;51.762;14.320;2023-12-20T05:00:28;100044.06;;;6.51;100.00
7168;BME280;3625;51.762;14.320;2023-12-20T05:02:57;100011.97;;;6.26;100.00
7168;BME280;3625;51.762;14.320;2023-12-20T05:05:26;100050.19;;;6.53;100.00
7168;BME280;3625;51.762;14.320;2023-12-20T05:07:55;100062.47;;;6.52;100.00
7168;BME280;3625;51.762;14.320;2023-12-20T05:10:24;100059.00;;;6.49;100.00
7168;BME280;3625;51.762;14.320;2023-12-20T05:12:54;100065.09;;;6.49;100.00
7168;BME280;3625;51.762;14.320;2023-12-20T05:15:23;100068.56;;;6.54;100.00
7168;BME280;3625;51.762;14.320;2023-12-20T05:18:08;100066.84;;;6.52;100.00
7168;BME280;3625;51.762;14.320;2023-12-20T05:20:37;100058.09;;;6.51;100.00
7168;BME280;3625;51.762;14.320;2023-12-20T05:23:06;100063.34;;;6.51;100.00
7168;BME280;3625;51.762;14.320;2023-12-20T05:25:35;100053.69;;;6.53;100.00
7168;BME280;3625;51.762;14.320;2023-12-20T05:28:05;100053.72;;;6.50;100.00
7168;BME280;3625;51.762;14.320;2023-12-20T05:30:34;100042.38;;;6.48;100.00
7168;BME280;3625;51.762;14.320;2023-12-20T05:33:03;100053.75;;;6.49;100.00
7168;BME280;3625;51.762;14.320;2023-12-20T05:35:33;100039.75;;;6.47;100.00
7168;BME280;3625;51.762;14.320;2023-12-20T05:38:02;100056.41;;;6.47;100.00
7168;BME280;3625;51.762;14.320;2023-12-20T05:40:31;100069.53;;;6.47;100.00
7168;BME280;3625;51.762;14.320;2023-12-20T05:43:00;100070.41;;;6.48;100.00
7168;BME280;3625;51.762;14.320;2023-12-20T05:45:30;100066.91;;;6.47;100.00
7168;BME280;3625;51.762;14.320;2023-12-20T05:47:59;100063.44;;;6.45;100.00
7168;BME280;3625;51.762;14.320;2023-12-20T05:50:27;100064.38;;;6.39;100.00
7168;BME280;3625;51.762;14.320;2023-12-20T05:53:01;100074.91;;;6.36;100.00
7168;BME280;3625;51.762;14.320;2023-12-20T05:55:29;100088.06;;;6.32;100.00
7168;BME280;3625;51.762;14.320;2023-12-20T05:57:58;100089.88;;;6.30;100.00
7168;BME280;3625;51.762;14.320;2023-12-20T06:00:28;100082.03;;;6.27;100.00
7168;BME280;3625;51.762;14.320;2023-12-20T06:02:57;100081.16;;;6.25;100.00
7168;BME280;3625;51.762;14.320;2023-12-20T06:05:26;100084.66;;;6.27;100.00
7168;BME280;3625;51.762;14.320;2023-12-20T06:07:56;100083.78;;;6.25;100.00
7168;BME280;3625;51.762;14.320;2023-12-20T06:10:30;100081.22;;;6.22;100.00
7168;BME280;3625;51.762;14.320;2023-12-20T06:12:59;100087.38;;;6.18;100.00
7168;BME280;3625;51.762;14.320;2023-12-20T06:15:29;100090.06;;;6.13;100.00
7168;BME280;3625;51.762;14.320;2023-12-20T06:18:00;100089.22;;;6.08;100.00
7168;BME280;3625;51.762;14.320;2023-12-20T06:20:29;100084.84;;;6.05;100.00
7168;BME280;3625;51.762;14.320;2023-12-20T06:22:59;100084.94;;;5.98;100.00
7168;BME280;3625;51.762;14.320;2023-12-20T06:25:50;100089.41;;;5.87;100.00
7168;BME280;3625;51.762;14.320;2023-12-20T06:28:19;100092.13;;;5.73;100.00
7168;BME280;3625;51.762;14.320;2023-12-20T06:30:49;100087.91;;;5.55;100.00
7168;BME280;3625;51.762;14.320;2023-12-20T06:33:20;100090.66;;;5.40;100.00
7168;BME280;3625;51.762;14.320;2023-12-20T06:35:50;100089.03;;;5.22;100.00
7168;BME280;3625;51.762;14.320;2023-12-20T06:38:20;100096.13;;;5.08;100.00
7168;BME280;3625;51.762;14.320;2023-12-20T06:40:50;100068.31;;;4.77;100.00
7168;BME280;3625;51.762;14.320;2023-12-20T06:43:19;100094.50;;;4.80;100.00
7168;BME280;3625;51.762;14.320;2023-12-20T06:46:08;100092.84;;;4.62;100.00
7168;BME280;3625;51.762;14.320;2023-12-20T06:48:37;100085.06;;;4.48;100.00
7168;BME280;3625;51.762;14.320;2023-12-20T06:51:06;100098.94;;;4.60;100.00
7168;BME280;3625;51.762;14.320;2023-12-20T06:53:38;100098.94;;;4.63;100.00
7168;BME280;3625;51.762;14.320;2023-12-20T06:56:09;100104.19;;;4.61;100.00
7168;BME280;3625;51.762;14.320;2023-12-20T06:58:40;100113.78;;;4.59;100.00
7168;BME280;3625;51.762;14.320;2023-12-20T07:01:11;100110.34;;;4.57;100.00
7168;BME280;3625;51.762;14.320;2023-12-20T07:03:41;100111.19;;;4.59;100.00
7168;BME280;3625;51.762;14.320;2023-12-20T07:06:09;100117.28;;;4.63;100.00
7168;BME280;3625;51.762;14.320;2023-12-20T07:08:40;100111.97;;;4.79;100.00
7168;BME280;3625;51.762;14.320;2023-12-20T07:11:10;100118.88;;;5.00;100.00
7168;BME280;3625;51.762;14.320;2023-12-20T07:13:39;100127.53;;;5.13;100.00
7168;BME280;3625;51.762;14.320;2023-12-20T07:16:08;100125.75;;;5.19;100.00
7168;BME280;3625;51.762;14.320;2023-12-20T07:18:37;100131.84;;;5.27;100.00
7168;BME280;3625;51.762;14.320;2023-12-20T07:21:06;100143.09;;;5.40;100.00
7168;BME280;3625;51.762;14.320;2023-12-20T07:23:35;100138.69;;;5.50;100.00
7168;BME280;3625;51.762;14.320;2023-12-20T07:26:04;100139.50;;;5.58;100.00
7168;BME280;3625;51.762;14.320;2023-12-20T07:28:34;100144.78;;;5.50;100.00
7168;BME280;3625;51.762;14.320;2023-12-20T07:31:04;100134.38;;;5.38;100.00
7168;BME280;3625;51.762;14.320;2023-12-20T07:33:33;100129.22;;;5.24;100.00
7168;BME280;3625;51.762;14.320;2023-12-20T07:36:06;100022.97;;;4.63;100.00
7168;BME280;3625;51.762;14.320;2023-12-20T07:38:36;100130.91;;;5.33;100.00
7168;BME280;3625;51.762;14.320;2023-12-20T07:41:05;100136.06;;;5.48;100.00
7168;BME280;3625;51.762;14.320;2023-12-20T07:43:35;100076.78;;;5.27;100.00
7168;BME280;3625;51.762;14.320;2023-12-20T07:46:05;100124.56;;;5.66;100.00
7168;BME280;3625;51.762;14.320;2023-12-20T07:48:35;100126.25;;;5.72;100.00
7168;BME280;3625;51.762;14.320;2023-12-20T07:51:04;100120.13;;;5.71;100.00
7168;BME280;3625;51.762;14.320;2023-12-20T07:53:35;100121.88;;;5.72;100.00
7168;BME280;3625;51.762;14.320;2023-12-20T07:56:14;100120.97;;;5.78;100.00
7168;BME280;3625;51.762;14.320;2023-12-20T07:58:46;100115.75;;;5.75;100.00
7168;BME280;3625;51.762;14.320;2023-12-20T08:01:20;100118.34;;;5.76;100.00
7168;BME280;3625;51.762;14.320;2023-12-20T08:03:50;100110.41;;;5.88;100.00
7168;BME280;3625;51.762;14.320;2023-12-20T08:06:19;100103.22;;;6.05;100.00
7168;BME280;3625;51.762;14.320;2023-12-20T08:08:49;100107.56;;;6.13;100.00
7168;BME280;3625;51.762;14.320;2023-12-20T08:11:28;100025.63;;;5.74;100.00
7168;BME280;3625;51.762;14.320;2023-12-20T08:13:59;100111.78;;;6.27;100.00
7168;BME280;3625;51.762;14.320;2023-12-20T08:16:28;100110.81;;;6.36;100.00
7168;BME280;3625;51.762;14.320;2023-12-20T08:18:57;100114.22;;;6.44;100.00
7168;BME280;3625;51.762;14.320;2023-12-20T08:21:27;100112.25;;;6.63;100.00
7168;BME280;3625;51.762;14.320;2023-12-20T08:23:56;100117.22;;;6.86;100.00
7168;BME280;3625;51.762;14.320;2023-12-20T08:26:25;100111.84;;;6.96;100.00
7168;BME280;3625;51.762;14.320;2023-12-20T08:28:54;100105.72;;;6.94;100.00
7168;BME280;3625;51.762;14.320;2023-12-20T08:31:28;100109.28;;;6.92;100.00
7168;BME280;3625;51.762;14.320;2023-12-20T08:33:57;100105.03;;;6.81;100.00
7168;BME280;3625;51.762;14.320;2023-12-20T08:36:26;100110.41;;;6.72;100.00
7168;BME280;3625;51.762;14.320;2023-12-20T08:38:55;100106.91;;;6.70;100.00
7168;BME280;3625;51.762;14.320;2023-12-20T08:41:24;100106.94;;;6.67;100.00
7168;BME280;3625;51.762;14.320;2023-12-20T08:43:53;100107.78;;;6.69;100.00
7168;BME280;3625;51.762;14.320;2023-12-20T08:46:22;100105.25;;;6.63;100.00
7168;BME280;3625;51.762;14.320;2023-12-20T08:48:52;100107.81;;;6.66;100.00
7168;BME280;3625;51.762;14.320;2023-12-20T08:51:21;100101.75;;;6.64;100.00
7168;BME280;3625;51.762;14.320;2023-12-20T08:53:53;100104.41;;;6.58;100.00
7168;BME280;3625;51.762;14.320;2023-12-20T08:56:22;100100.91;;;6.59;100.00
7168;BME280;3625;51.762;14.320;2023-12-20T08:58:50;100105.34;;;6.54;100.00
7168;BME280;3625;51.762;14.320;2023-12-20T09:01:19;100103.50;;;6.62;100.00
7168;BME280;3625;51.762;14.320;2023-12-20T09:03:48;100092.22;;;6.56;100.00
7168;BME280;3625;51.762;14.320;2023-12-20T09:06:19;100104.50;;;6.51;100.00
7168;BME280;3625;51.762;14.320;2023-12-20T09:08:48;100108.88;;;6.53;100.00
7168;BME280;3625;51.762;14.320;2023-12-20T09:11:17;100106.00;;;6.73;100.00
7168;BME280;3625;51.762;14.320;2023-12-20T09:13:46;100117.09;;;6.96;100.00
7168;BME280;3625;51.762;14.320;2023-12-20T09:16:15;100110.13;;;6.94;100.00
7168;BME280;3625;51.762;14.320;2023-12-20T09:18:44;100109.34;;;6.86;100.00
7168;BME280;3625;51.762;14.320;2023-12-20T09:21:14;100062.44;;;6.55;100.00
7168;BME280;3625;51.762;14.320;2023-12-20T09:23:44;100119.16;;;6.74;100.00
7168;BME280;3625;51.762;14.320;2023-12-20T09:26:13;100127.94;;;6.72;100.00
7168;BME280;3625;51.762;14.320;2023-12-20T09:28:42;100121.88;;;6.65;100.00
7168;BME280;3625;51.762;14.320;2023-12-20T09:31:11;100106.94;;;6.67;100.00
7168;BME280;3625;51.762;14.320;2023-12-20T09:33:40;100105.97;;;6.76;100.00
7168;BME280;3625;51.762;14.320;2023-12-20T09:36:09;100116.38;;;6.83;100.00
7168;BME280;3625;51.762;14.320;2023-12-20T09:38:39;100109.22;;;6.95;100.00
7168;BME280;3625;51.762;14.320;2023-12-20T09:41:12;100063.84;;;6.82;100.00
7168;BME280;3625;51.762;14.320;2023-12-20T09:43:42;100083.47;;;7.18;100.00
7168;BME280;3625;51.762;14.320;2023-12-20T09:46:12;100088.66;;;7.26;100.00
7168;BME280;3625;51.762;14.320;2023-12-20T09:48:45;100079.06;;;7.18;100.00
7168;BME280;3625;51.762;14.320;2023-12-20T09:51:15;100072.16;;;7.11;100.00
7168;BME280;3625;51.762;14.320;2023-12-20T09:53:45;100069.34;;;7.25;100.00
7168;BME280;3625;51.762;14.320;2023-12-20T09:56:18;100068.22;;;7.43;100.00
7168;BME280;3625;51.762;14.320;2023-12-20T09:58:47;100071.28;;;7.69;100.00
7168;BME280;3625;51.762;14.320;2023-12-20T10:01:16;100070.28;;;7.76;100.00
7168;BME280;3625;51.762;14.320;2023-12-20T10:03:46;100076.59;;;7.66;100.00
7168;BME280;3625;51.762;14.320;2023-12-20T10:06:15;100075.84;;;7.60;100.00
7168;BME280;3625;51.762;14.320;2023-12-20T10:08:44;100066.31;;;7.51;100.00
7168;BME280;3625;51.762;14.320;2023-12-20T10:11:13;100066.34;;;7.49;100.00
7168;BME280;3625;51.762;14.320;2023-12-20T10:13:43;100043.25;;;7.67;100.00
7168;BME280;3625;51.762;14.320;2023-12-20T10:16:13;100049.94;;;7.86;100.00
7168;BME280;3625;51.762;14.320;2023-12-20T10:18:42;100052.66;;;7.80;100.00
7168;BME280;3625;51.762;14.320;2023-12-20T10:21:12;100057.00;;;7.82;100.00
7168;BME280;3625;51.762;14.320;2023-12-20T10:23:40;100055.50;;;7.69;100.00
7168;BME280;3625;51.762;14.320;2023-12-20T10:26:10;100054.34;;;7.84;100.00
7168;BME280;3625;51.762;14.320;2023-12-20T10:28:40;100054.22;;;7.91;100.00
7168;BME280;3625;51.762;14.320;2023-12-20T10:31:10;100050.91;;;7.79;100.00
7168;BME280;3625;51.762;14.320;2023-12-20T10:33:40;100043.78;;;7.87;100.00
7168;BME280;3625;51.762;14.320;2023-12-20T10:36:10;100054.34;;;7.84;100.00
7168;BME280;3625;51.762;14.320;2023-12-20T10:38:43;100055.06;;;7.93;100.00
7168;BME280;3625;51.762;14.320;2023-12-20T10:41:13;100030.53;;;7.88;100.00
7168;BME280;3625;51.762;14.320;2023-12-20T10:43:45;100033.34;;;7.79;100.00
7168;BME280;3625;51.762;14.320;2023-12-20T10:46:17;100039.16;;;7.98;100.00
7168;BME280;3625;51.762;14.320;2023-12-20T10:48:48;100014.56;;;7.99;100.00
7168;BME280;3625;51.762;14.320;2023-12-20T10:51:21;100017.94;;;8.06;100.00
7168;BME280;3625;51.762;14.320;2023-12-20T10:53:51;100024.19;;;8.00;100.00
7168;BME280;3625;51.762;14.320;2023-12-20T10:56:21;100011.84;;;8.04;100.00
7168;BME280;3625;51.762;14.320;2023-12-20T10:58:51;100007.31;;;8.12;100.00
7168;BME280;3625;51.762;14.320;2023-12-20T11:01:21;100018.72;;;8.12;100.00
7168;BME280;3625;51.762;14.320;2023-12-20T11:03:52;100006.47;;;8.08;100.00
7168;BME280;3625;51.762;14.320;2023-12-20T11:06:36;100009.25;;;8.02;100.00
7168;BME280;3625;51.762;14.320;2023-12-20T11:09:16;99979.72;;;7.85;100.00
7168;BME280;3625;51.762;14.320;2023-12-20T11:12:02;99996.63;;;8.18;100.00
7168;BME280;3625;51.762;14.320;2023-12-20T11:14:40;99999.34;;;8.13;100.00
7168;BME280;3625;51.762;14.320;2023-12-20T11:17:13;100003.78;;;8.13;100.00
7168;BME280;3625;51.762;14.320;2023-12-20T11:20:06;99956.13;;;7.79;100.00
7168;BME280;3625;51.762;14.320;2023-12-20T11:22:36;99983.97;;;7.92;100.00
7168;BME280;3625;51.762;14.320;2023-12-20T11:25:09;99983.94;;;7.95;100.00
7168;BME280;3625;51.762;14.320;2023-12-20T11:27:42;99973.97;;;8.09;100.00
7168;BME280;3625;51.762;14.320;2023-12-20T11:30:15;99970.38;;;8.13;100.00
7168;BME280;3625;51.762;14.320;2023-12-20T11:32:46;99973.09;;;8.09;100.00
7168;BME280;3625;51.762;14.320;2023-12-20T11:35:19;99973.91;;;8.12;100.00
7168;BME280;3625;51.762;14.320;2023-12-20T11:37:49;99967.94;;;8.04;100.00
7168;BME280;3625;51.762;14.320;2023-12-20T11:40:18;99966.06;;;8.09;100.00
7168;BME280;3625;51.762;14.320;2023-12-20T11:42:51;99945.94;;;8.05;100.00
7168;BME280;3625;51.762;14.320;2023-12-20T11:45:22;99947.81;;;8.00;100.00
7168;BME280;3625;51.762;14.320;2023-12-20T11:47:58;99946.72;;;8.10;100.00
7168;BME280;3625;51.762;14.320;2023-12-20T11:50:27;99937.97;;;8.08;100.00
7168;BME280;3625;51.762;14.320;2023-12-20T11:52:57;99939.69;;;8.12;100.00
7168;BME280;3625;51.762;14.320;2023-12-20T11:55:26;99938.69;;;8.16;100.00
7168;BME280;3625;51.762;14.320;2023-12-20T11:57:55;99937.81;;;8.17;100.00
7168;BME280;3625;51.762;14.320;2023-12-20T12:00:25;99925.66;;;8.10;100.00
7168;BME280;3625;51.762;14.320;2023-12-20T12:02:59;99932.47;;;8.20;100.00
7168;BME280;3625;51.762;14.320;2023-12-20T12:05:31;99900.97;;;8.14;100.00
7168;BME280;3625;51.762;14.320;2023-12-20T12:08:01;99924.38;;;8.29;100.00
7168;BME280;3625;51.762;14.320;2023-12-20T12:10:32;99924.22;;;8.39;100.00
7168;BME280;3625;51.762;14.320;2023-12-20T12:13:01;99911.31;;;8.23;100.00
7168;BME280;3625;51.762;14.320;2023-12-20T12:15:30;99912.03;;;8.31;100.00
7168;BME280;3625;51.762;14.320;2023-12-20T12:18:00;99893.50;;;7.94;100.00
7168;BME280;3625;51.762;14.320;2023-12-20T12:20:29;99912.31;;;8.18;100.00
7168;BME280;3625;51.762;14.320;2023-12-20T12:22:59;99916.41;;;8.32;100.00
7168;BME280;3625;51.762;14.320;2023-12-20T12:25:29;99911.41;;;8.20;100.00
7168;BME280;3625;51.762;14.320;2023-12-20T12:27:59;99919.53;;;8.10;100.00
7168;BME280;3625;51.762;14.320;2023-12-20T12:30:29;99916.16;;;8.03;100.00
7168;BME280;3625;51.762;14.320;2023-12-20T12:33:07;99858.81;;;7.74;100.00
7168;BME280;3625;51.762;14.320;2023-12-20T12:35:36;99900.56;;;7.92;100.00
7168;BME280;3625;51.762;14.320;2023-12-20T12:38:07;99903.16;;;7.94;100.00
7168;BME280;3625;51.762;14.320;2023-12-20T12:40:37;99881.94;;;8.02;100.00
7168;BME280;3625;51.762;14.320;2023-12-20T12:43:05;99875.94;;;7.95;100.00
7168;BME280;3625;51.762;14.320;2023-12-20T12:45:35;99878.75;;;7.86;100.00
7168;BME280;3625;51.762;14.320;2023-12-20T12:48:06;99877.03;;;7.85;100.00
7168;BME280;3625;51.762;14.320;2023-12-20T12:50:35;99867.47;;;7.79;100.00
7168;BME280;3625;51.762;14.320;2023-12-20T12:53:04;99850.16;;;7.69;100.00
7168;BME280;3625;51.762;14.320;2023-12-20T12:55:34;99863.19;;;7.74;100.00
7168;BME280;3625;51.762;14.320;2023-12-20T12:58:03;99861.47;;;7.73;100.00
7168;BME280;3625;51.762;14.320;2023-12-20T13:00:33;99855.41;;;7.69;100.00
7168;BME280;3625;51.762;14.320;2023-12-20T13:03:02;99866.66;;;7.76;100.00
7168;BME280;3625;51.762;14.320;2023-12-20T13:05:32;99842.75;;;7.86;100.00
7168;BME280;3625;51.762;14.320;2023-12-20T13:08:06;99838.25;;;7.91;100.00
7168;BME280;3625;51.762;14.320;2023-12-20T13:10:37;99824.22;;;7.91;100.00
7168;BME280;3625;51.762;14.320;2023-12-20T13:13:06;99827.00;;;7.83;100.00
7168;BME280;3625;51.762;14.320;2023-12-20T13:15:35;99826.16;;;7.83;100.00
7168;BME280;3625;51.762;14.320;2023-12-20T13:18:04;99846.38;;;7.81;100.00